createdAt,value
2022-09-07T00:00:24.802Z,77.15
2022-09-07T00:03:32.536Z,77.06
2022-09-07T00:06:43.081Z,76.56
2022-09-07T00:09:49.210Z,76.93
2022-09-07T00:12:57.665Z,76.24
2022-09-07T00:16:11.957Z,75.29
2022-09-07T00:19:24.004Z,75.77
2022-09-07T00:22:29.167Z,76.54
2022-09-07T00:25:38.194Z,75.93
2022-09-07T00:28:47.599Z,74.85
2022-09-07T00:31:59.236Z,74.15
2022-09-07T00:35:09.349Z,74.23
2022-09-07T00:38:13.869Z,74.37
2022-09-07T00:41:26.712Z,74.76
2022-09-07T00:45:03.149Z,74.66
2022-09-07T00:48:23.413Z,73.85
2022-09-07T00:51:34.993Z,74.29
2022-09-07T00:54:46.827Z,75.09
2022-09-07T00:58:00.704Z,75.79
2022-09-07T01:01:18.546Z,76.37
2022-09-07T01:04:34.460Z,75.20
2022-09-07T01:07:45.523Z,75.24
2022-09-07T01:11:04.523Z,74.84
2022-09-07T01:14:31.031Z,75.03
2022-09-07T01:17:51.469Z,75.73
2022-09-07T01:21:25.439Z,73.87
2022-09-07T01:24:46.180Z,73.35
2022-09-07T01:28:15.281Z,73.50
2022-09-07T01:31:32.652Z,73.24
2022-09-07T01:34:41.236Z,72.63
2022-09-07T01:37:57.033Z,72.57
2022-09-07T01:41:14.714Z,72.67
2022-09-07T01:44:34.987Z,72.60
2022-09-07T01:47:49.529Z,73.07
2022-09-07T01:51:03.143Z,74.04
2022-09-07T01:54:15.760Z,74.34
2022-09-07T01:57:26.107Z,74.24
2022-09-07T02:00:39.045Z,74.50
2022-09-07T02:03:48.725Z,74.48
2022-09-07T02:07:03.770Z,75.73
2022-09-07T02:10:14.611Z,76.25
2022-09-07T02:13:26.151Z,76.93
2022-09-07T02:16:42.450Z,77.47
2022-09-07T02:19:58.121Z,78.30
2022-09-07T02:23:09.943Z,78.40
2022-09-07T02:26:28.760Z,78.80
2022-09-07T02:29:41.195Z,79.23
2022-09-07T02:32:54.215Z,80.51
2022-09-07T02:36:02.431Z,80.21
2022-09-07T02:39:12.259Z,78.72
2022-09-07T02:42:20.611Z,78.56
2022-09-07T02:45:32.807Z,78.40
2022-09-07T02:48:54.531Z,78.60
2022-09-07T02:52:19.095Z,78.85
2022-09-07T02:55:40.175Z,77.93
2022-09-07T02:59:02.607Z,77.10
2022-09-07T03:02:18.425Z,76.85
2022-09-07T03:05:33.257Z,76.20
2022-09-07T03:08:46.594Z,76.48
2022-09-07T03:11:55.713Z,76.01
2022-09-07T03:15:05.211Z,76.28
2022-09-07T03:18:12.797Z,76.46
2022-09-07T03:21:22.951Z,76.75
2022-09-07T03:24:29.704Z,77.33
2022-09-07T03:27:36.192Z,77.49
2022-09-07T03:30:47.535Z,77.98
2022-09-07T03:34:03.170Z,78.26
2022-09-07T03:37:16.013Z,78.86
2022-09-07T03:40:23.363Z,79.24
2022-09-07T03:43:32.863Z,79.26
2022-09-07T03:46:45.209Z,79.79
2022-09-07T03:49:53.470Z,80.16
2022-09-07T03:53:03.880Z,80.75
2022-09-07T03:56:16.640Z,81.41
2022-09-07T03:59:25.403Z,81.77
2022-09-07T04:02:34.359Z,82.43
2022-09-07T04:05:41.589Z,82.93
2022-09-07T04:08:50.720Z,83.46
2022-09-07T04:12:01.912Z,83.72
2022-09-07T04:15:08.627Z,84.26
2022-09-07T04:18:20.211Z,84.02
2022-09-07T04:21:34.526Z,84.60
2022-09-07T04:24:43.600Z,84.48
2022-09-07T04:27:53.436Z,84.75
2022-09-07T04:31:05.541Z,85.14
2022-09-07T04:34:12.583Z,85.60
2022-09-07T04:37:19.991Z,85.87
2022-09-07T04:40:31.573Z,85.72
2022-09-07T04:43:42.330Z,86.42
2022-09-07T04:46:52.600Z,86.29
2022-09-07T04:49:57.619Z,86.41
2022-09-07T04:53:03.376Z,86.51
2022-09-07T04:56:15.021Z,87.05
2022-09-07T04:59:33.346Z,87.15
2022-09-07T05:02:52.892Z,87.08
2022-09-07T05:06:30.376Z,87.18
2022-09-07T05:09:50.100Z,86.95
2022-09-07T05:13:08.428Z,87.21
2022-09-07T05:16:16.398Z,87.40
2022-09-07T05:19:24.103Z,87.78
2022-09-07T05:22:31.381Z,87.24
2022-09-07T05:25:48.006Z,87.51
2022-09-07T05:32:30.712Z,87.27
2022-09-07T05:35:39.203Z,87.57
2022-09-07T05:38:51.296Z,87.40
2022-09-07T05:42:12.442Z,87.70
2022-09-07T05:45:22.574Z,87.70
2022-09-07T05:48:33.007Z,87.38
2022-09-07T05:51:47.493Z,87.09
2022-09-07T05:55:30.775Z,86.73
2022-09-07T05:58:43.593Z,85.84
2022-09-07T06:02:05.679Z,85.08
2022-09-07T06:05:15.006Z,84.41
2022-09-07T06:08:23.155Z,84.41
2022-09-07T06:11:36.452Z,84.03
2022-09-07T06:14:51.458Z,83.66
2022-09-07T06:18:21.034Z,83.54
2022-09-07T06:21:31.629Z,83.55
2022-09-07T06:24:41.686Z,83.76
2022-09-07T06:27:54.399Z,83.70
2022-09-07T06:39:13.236Z,81.65
2022-09-07T06:42:59.565Z,80.12
2022-09-07T06:58:11.338Z,73.77
2022-09-07T07:05:51.031Z,74.55
2022-09-07T07:09:31.338Z,75.14
2022-09-07T07:13:06.378Z,75.67
2022-09-07T07:16:28.549Z,73.37
2022-09-07T07:19:38.525Z,71.70
2022-09-07T07:22:47.351Z,70.66
2022-09-07T07:25:54.841Z,69.45
2022-09-07T07:29:03.967Z,67.92
2022-09-07T07:32:12.371Z,67.37
2022-09-07T07:35:19.985Z,67.30
2022-09-07T07:42:05.858Z,66.06
2022-09-07T07:48:44.212Z,65.35
2022-09-07T07:55:44.721Z,65.52
2022-09-07T07:58:56.286Z,65.25
2022-09-07T08:02:05.899Z,64.31
2022-09-07T08:05:14.524Z,63.23
2022-09-07T08:08:31.547Z,63.31
2022-09-07T08:11:47.853Z,63.75
2022-09-07T08:14:58.310Z,62.65
2022-09-07T08:25:37.949Z,60.17
2022-09-07T08:28:58.995Z,59.84
2022-09-07T08:32:16.055Z,58.72
2022-09-07T08:36:12.948Z,57.33
2022-09-07T08:43:31.349Z,56.71
2022-09-07T08:50:42.521Z,54.74
2022-09-07T08:54:05.470Z,55.24
2022-09-07T08:57:27.999Z,55.17
2022-09-07T09:04:34.676Z,52.84
2022-09-07T09:08:16.741Z,51.88
2022-09-07T09:11:33.821Z,51.55
2022-09-07T09:14:57.890Z,52.09
2022-09-07T09:18:14.589Z,50.65
2022-09-07T09:21:26.373Z,50.64
2022-09-07T09:24:38.318Z,51.68
2022-09-07T09:27:50.007Z,52.25
2022-09-07T09:31:04.131Z,51.06
2022-09-07T09:34:25.467Z,51.02
2022-09-07T09:37:49.832Z,49.66
2022-09-07T09:41:01.130Z,48.44
2022-09-07T09:44:10.142Z,48.81
2022-09-07T09:47:30.358Z,49.63
2022-09-07T10:05:51.090Z,49.46
2022-09-07T10:09:02.592Z,51.07
2022-09-07T10:12:23.588Z,51.91
2022-09-07T10:15:41.420Z,52.04
2022-09-07T10:19:05.258Z,51.95
2022-09-07T10:22:42.780Z,52.23
2022-09-07T10:25:50.511Z,53.30
2022-09-07T10:29:17.413Z,52.14
2022-09-07T10:32:49.569Z,51.85
2022-09-07T10:36:14.328Z,51.80
2022-09-07T10:39:34.743Z,51.24
2022-09-07T10:47:02.555Z,51.12
2022-09-07T10:50:27.669Z,52.07
2022-09-07T10:53:43.096Z,53.40
2022-09-07T10:57:05.368Z,54.37
2022-09-07T11:00:19.215Z,55.20
2022-09-07T11:03:49.209Z,54.50
2022-09-07T11:07:06.047Z,52.53
2022-09-07T11:10:24.571Z,50.38
2022-09-07T11:14:09.037Z,49.81
2022-09-07T11:17:28.662Z,49.22
2022-09-07T11:20:51.501Z,48.13
2022-09-07T11:24:12.672Z,48.56
2022-09-07T11:27:31.066Z,46.82
2022-09-07T11:30:50.911Z,46.81
2022-09-07T11:37:45.005Z,44.56
2022-09-07T11:41:12.321Z,44.48
2022-09-07T11:44:39.983Z,45.30
2022-09-07T11:47:58.486Z,44.46
2022-09-07T11:51:17.222Z,45.93
2022-09-07T11:54:36.167Z,45.51
2022-09-07T11:58:08.013Z,45.02
2022-09-07T12:01:30.788Z,45.35
2022-09-07T12:04:57.507Z,45.17
2022-09-07T12:08:22.111Z,45.21
2022-09-07T12:12:07.213Z,43.02
2022-09-07T12:15:27.984Z,42.63
2022-09-07T12:19:00.927Z,40.07
2022-09-07T12:22:22.783Z,42.09
2022-09-07T12:25:32.143Z,41.20
2022-09-07T12:29:26.583Z,41.42
2022-09-07T12:33:24.781Z,41.45
2022-09-07T12:37:12.167Z,41.03
2022-09-07T12:44:29.332Z,39.17
2022-09-07T12:47:34.645Z,39.34
2022-09-07T12:51:02.233Z,40.20
2022-09-07T12:54:19.480Z,38.93
2022-09-07T12:57:35.273Z,38.76
2022-09-07T13:00:57.989Z,38.75
2022-09-07T13:08:57.674Z,37.42
2022-09-07T13:12:57.551Z,37.81
2022-09-07T13:25:14.854Z,37.87
2022-09-07T13:29:24.093Z,36.71
2022-09-07T13:50:52.779Z,36.52
2022-09-07T13:54:35.244Z,36.72
2022-09-07T14:02:32.240Z,38.09
2022-09-07T14:10:06.120Z,39.26
2022-09-07T14:23:08.782Z,40.22
2022-09-07T14:30:35.104Z,38.89
2022-09-07T14:34:10.465Z,39.80
2022-09-07T14:37:46.922Z,38.67
2022-09-07T14:49:00.121Z,42.01
2022-09-07T14:56:50.171Z,41.77
2022-09-07T15:04:55.132Z,41.71
2022-09-07T15:12:17.604Z,41.02
2022-09-07T15:16:00.791Z,41.98
2022-09-07T15:19:45.257Z,41.66
2022-09-07T15:23:20.793Z,42.23
2022-09-07T15:27:04.949Z,42.40
2022-09-07T15:34:11.792Z,44.40
2022-09-07T15:49:12.507Z,46.20
2022-09-07T15:52:19.138Z,46.89
2022-09-07T15:55:30.374Z,46.67
2022-09-07T15:58:45.342Z,46.83
2022-09-07T16:01:58.244Z,47.68
2022-09-07T16:05:08.243Z,47.24
2022-09-07T16:08:25.128Z,47.01
2022-09-07T16:11:31.335Z,46.42
2022-09-07T16:14:43.898Z,47.31
2022-09-07T16:17:53.869Z,46.44
2022-09-07T16:21:05.742Z,47.10
2022-09-07T16:24:13.217Z,46.73
2022-09-07T16:27:19.063Z,47.17
2022-09-07T16:30:25.882Z,47.87
2022-09-07T16:33:37.354Z,47.52
2022-09-07T16:36:45.171Z,47.80
2022-09-07T16:39:53.040Z,46.83
2022-09-07T16:43:18.258Z,47.68
2022-09-07T16:46:29.636Z,48.19
2022-09-07T16:49:39.461Z,48.09
2022-09-07T16:53:10.735Z,48.70
2022-09-07T17:00:13.051Z,48.48
2022-09-07T17:03:43.234Z,49.65
2022-09-07T17:07:13.735Z,49.75
2022-09-07T17:10:24.521Z,50.01
2022-09-07T17:13:42.451Z,49.86
2022-09-07T17:17:07.669Z,50.98
2022-09-07T17:20:34.021Z,51.01
2022-09-07T17:23:55.122Z,51.73
2022-09-07T17:27:06.176Z,52.42
2022-09-07T17:30:14.247Z,54.80
2022-09-07T17:33:21.768Z,55.76
2022-09-07T17:36:34.491Z,55.87
2022-09-07T17:39:50.859Z,56.15
2022-09-07T17:46:24.516Z,55.73
2022-09-07T17:49:32.252Z,54.08
2022-09-07T17:52:41.163Z,53.83
2022-09-07T17:55:57.077Z,54.29
2022-09-07T18:02:32.427Z,51.89
2022-09-07T18:05:42.714Z,52.71
2022-09-07T18:08:52.367Z,53.01
2022-09-07T18:12:01.181Z,53.52
2022-09-07T18:15:10.472Z,58.36
2022-09-07T18:18:17.095Z,58.75
2022-09-07T18:21:26.741Z,62.58
2022-09-07T18:24:39.148Z,64.92
2022-09-07T18:29:03.333Z,68.33
2022-09-07T18:31:18.754Z,71.09
2022-09-07T18:34:25.778Z,71.58
2022-09-07T18:37:36.351Z,74.17
2022-09-07T18:40:47.714Z,75.43
2022-09-07T18:45:26.656Z,74.45
2022-09-07T18:47:37.674Z,71.16
2022-09-07T18:50:57.589Z,69.68
2022-09-07T18:54:07.391Z,69.22
2022-09-07T18:57:15.419Z,68.32
2022-09-07T19:00:27.719Z,66.30
2022-09-07T19:03:40.651Z,66.12
2022-09-07T19:06:50.291Z,65.32
2022-09-07T19:10:06.937Z,65.05
2022-09-07T19:13:17.509Z,67.18
2022-09-07T19:19:58.696Z,69.56
2022-09-07T19:23:12.621Z,70.12
2022-09-07T19:26:22.371Z,71.99
2022-09-07T19:29:31.203Z,74.43
2022-09-07T19:32:49.531Z,74.91
2022-09-07T19:36:02.705Z,72.72
2022-09-07T19:39:22.267Z,71.27
2022-09-07T19:42:28.424Z,73.52
2022-09-07T19:45:35.796Z,73.12
2022-09-07T19:48:46.618Z,73.57
2022-09-07T19:51:59.202Z,74.22
2022-09-07T19:55:04.384Z,74.39
2022-09-07T19:58:10.163Z,72.99
2022-09-07T20:01:19.443Z,73.25
2022-09-07T20:04:29.716Z,74.02
2022-09-07T20:07:44.257Z,73.63
2022-09-07T20:10:57.085Z,73.06
2022-09-07T20:14:24.624Z,73.72
2022-09-07T20:17:39.008Z,73.94
2022-09-07T20:20:58.157Z,74.05
2022-09-07T20:27:36.671Z,73.93
2022-09-07T20:30:45.464Z,74.12
2022-09-07T20:33:54.474Z,74.00
2022-09-07T20:37:06.439Z,74.11
2022-09-07T20:40:17.354Z,74.48
2022-09-07T20:43:26.807Z,74.48
2022-09-07T20:46:33.825Z,74.86
2022-09-07T20:49:47.929Z,75.42
2022-09-07T20:52:56.401Z,75.83
2022-09-07T20:56:03.536Z,76.03
2022-09-07T20:59:08.456Z,76.11
2022-09-07T21:02:13.592Z,75.89
2022-09-07T21:05:17.977Z,75.67
2022-09-07T21:08:24.338Z,75.39
2022-09-07T21:11:32.264Z,75.39
2022-09-07T21:14:36.667Z,75.48
2022-09-07T21:17:45.563Z,75.93
2022-09-07T21:21:18.872Z,75.83
2022-09-07T21:24:25.516Z,75.54
2022-09-07T21:27:34.068Z,75.72
2022-09-07T21:30:41.967Z,75.04
2022-09-07T21:33:48.725Z,74.91
2022-09-07T21:36:54.608Z,75.20
2022-09-07T21:40:04.629Z,75.12
2022-09-07T21:43:09.898Z,74.74
2022-09-07T21:46:16.833Z,74.47
2022-09-07T21:49:32.469Z,74.70
2022-09-07T21:52:48.469Z,74.43
2022-09-07T21:56:11.317Z,75.05
2022-09-07T21:59:23.474Z,75.14
2022-09-07T22:02:33.382Z,74.74
2022-09-07T22:05:40.526Z,73.77
2022-09-07T22:09:06.394Z,74.61
2022-09-07T22:12:28.605Z,75.54
2022-09-07T22:15:38.141Z,75.84
2022-09-07T22:18:46.240Z,75.91
2022-09-07T22:21:50.647Z,76.53
2022-09-07T22:24:55.030Z,76.84
2022-09-07T22:28:01.159Z,76.49
2022-09-07T22:31:14.440Z,76.34
2022-09-07T22:34:19.028Z,76.62
2022-09-07T22:37:25.431Z,77.35
2022-09-07T22:40:31.165Z,77.36
2022-09-07T22:43:37.777Z,77.38
2022-09-07T22:46:45.503Z,77.21
2022-09-07T22:49:51.389Z,77.42
2022-09-07T22:52:57.505Z,77.51
2022-09-07T22:56:07.600Z,77.73
2022-09-07T22:59:14.741Z,78.05
2022-09-07T23:02:19.047Z,78.02
2022-09-07T23:05:26.074Z,78.52
2022-09-07T23:08:34.978Z,78.56
2022-09-07T23:11:53.566Z,77.46
2022-09-07T23:15:00.529Z,78.22
2022-09-07T23:18:08.304Z,78.38
2022-09-07T23:21:16.407Z,78.99
2022-09-07T23:24:23.210Z,79.86
2022-09-07T23:27:35.174Z,81.26
2022-09-07T23:30:45.728Z,81.77
2022-09-07T23:33:55.939Z,82.14
2022-09-07T23:37:13.821Z,82.94
2022-09-07T23:40:22.148Z,83.29
2022-09-07T23:43:27.367Z,83.46
2022-09-07T23:46:33.911Z,83.95
2022-09-07T23:49:36.617Z,83.80
2022-09-07T23:52:39.273Z,84.19
2022-09-07T23:55:42.616Z,84.13
2022-09-07T23:58:45.299Z,83.86
